createdAt,value
2022-07-27T00:01:02.638Z,45.99
2022-07-27T00:03:31.666Z,46.73
2022-07-27T00:05:58.431Z,46.61
2022-07-27T00:08:25.422Z,46.30
2022-07-27T00:10:55.593Z,46.51
2022-07-27T00:13:22.349Z,46.75
2022-07-27T00:15:49.199Z,46.49
2022-07-27T00:18:16.004Z,45.80
2022-07-27T00:20:42.851Z,46.23
2022-07-27T00:23:10.267Z,46.37
2022-07-27T00:25:37.017Z,46.76
2022-07-27T00:28:04.006Z,47.02
2022-07-27T00:30:30.789Z,46.85
2022-07-27T00:32:57.616Z,47.11
2022-07-27T00:35:25.517Z,47.37
2022-07-27T00:37:52.333Z,47.81
2022-07-27T00:40:19.060Z,47.80
2022-07-27T00:42:45.841Z,47.37
2022-07-27T00:45:12.563Z,47.64
2022-07-27T00:47:39.353Z,48.09
2022-07-27T00:50:06.803Z,47.98
2022-07-27T00:52:34.341Z,48.48
2022-07-27T00:55:01.367Z,48.60
2022-07-27T00:57:28.405Z,48.32
2022-07-27T00:59:55.124Z,48.65
2022-07-27T01:02:23.032Z,49.32
2022-07-27T01:04:53.598Z,49.16
2022-07-27T01:07:21.823Z,49.23
2022-07-27T01:09:56.712Z,49.27
2022-07-27T01:12:27.761Z,49.70
2022-07-27T01:14:55.673Z,49.89
2022-07-27T01:17:22.916Z,49.92
2022-07-27T01:19:50.150Z,49.97
2022-07-27T01:22:16.874Z,50.54
2022-07-27T01:24:43.651Z,50.95
2022-07-27T01:27:10.340Z,50.94
2022-07-27T01:29:37.185Z,50.47
2022-07-27T01:32:04.622Z,50.82
2022-07-27T01:34:33.710Z,50.95
2022-07-27T01:37:01.647Z,51.24
2022-07-27T01:39:28.637Z,51.03
2022-07-27T01:41:55.525Z,51.19
2022-07-27T01:44:22.278Z,51.68
2022-07-27T01:46:49.434Z,51.52
2022-07-27T01:49:16.714Z,51.42
2022-07-27T01:51:43.691Z,51.66
2022-07-27T01:54:10.435Z,51.84
2022-07-27T01:56:37.119Z,51.85
2022-07-27T01:59:04.062Z,51.61
2022-07-27T02:01:30.941Z,51.94
2022-07-27T02:03:57.956Z,52.19
2022-07-27T02:06:24.659Z,52.27
2022-07-27T02:08:51.453Z,52.38
2022-07-27T02:11:36.822Z,52.76
2022-07-27T02:14:03.599Z,52.81
2022-07-27T02:16:30.477Z,52.86
2022-07-27T02:18:57.746Z,53.23
2022-07-27T02:21:24.485Z,53.11
2022-07-27T02:23:51.313Z,53.35
2022-07-27T02:26:18.106Z,53.65
2022-07-27T02:28:44.804Z,53.61
2022-07-27T02:31:11.523Z,53.90
2022-07-27T02:33:38.222Z,54.02
2022-07-27T02:36:05.285Z,54.45
2022-07-27T02:38:32.090Z,54.56
2022-07-27T02:40:58.858Z,54.70
2022-07-27T02:43:25.567Z,54.62
2022-07-27T02:45:52.490Z,54.84
2022-07-27T02:48:19.256Z,55.42
2022-07-27T02:50:46.062Z,55.00
2022-07-27T02:53:12.870Z,55.54
2022-07-27T02:55:39.556Z,55.90
2022-07-27T02:58:06.325Z,56.23
2022-07-27T03:00:34.054Z,56.58
2022-07-27T03:03:00.830Z,56.69
2022-07-27T03:05:27.532Z,56.98
2022-07-27T03:07:54.300Z,57.17
2022-07-27T03:10:20.952Z,57.66
2022-07-27T03:12:47.644Z,58.22
2022-07-27T03:15:14.364Z,57.98
2022-07-27T03:17:41.113Z,58.27
2022-07-27T03:20:09.377Z,58.67
2022-07-27T03:22:37.492Z,58.83
2022-07-27T03:25:04.535Z,59.22
2022-07-27T03:27:31.258Z,58.90
2022-07-27T03:29:58.325Z,59.06
2022-07-27T03:32:25.039Z,59.09
2022-07-27T03:34:52.026Z,59.22
2022-07-27T03:37:20.167Z,59.12
2022-07-27T03:39:47.142Z,59.78
2022-07-27T03:42:13.903Z,59.38
2022-07-27T03:44:40.597Z,59.65
2022-07-27T03:47:07.345Z,59.66
2022-07-27T03:49:34.306Z,59.08
2022-07-27T03:52:01.211Z,59.61
2022-07-27T03:54:28.305Z,59.79
2022-07-27T03:56:55.080Z,59.83
2022-07-27T03:59:21.795Z,59.53
2022-07-27T04:01:48.550Z,59.45
2022-07-27T04:04:15.337Z,59.37
2022-07-27T04:06:42.065Z,59.70
2022-07-27T04:09:09.228Z,59.52
2022-07-27T04:11:37.834Z,59.73
2022-07-27T04:14:12.948Z,59.67
2022-07-27T04:16:40.359Z,59.35
2022-07-27T04:19:07.567Z,59.31
2022-07-27T04:21:37.062Z,59.09
2022-07-27T04:24:04.075Z,59.14
2022-07-27T04:26:30.923Z,59.30
2022-07-27T04:28:57.609Z,59.64
2022-07-27T04:31:24.412Z,58.94
2022-07-27T04:33:54.313Z,58.62
2022-07-27T04:36:21.060Z,58.42
2022-07-27T04:38:47.779Z,58.87
2022-07-27T04:41:14.594Z,58.20
2022-07-27T04:43:41.509Z,58.40
2022-07-27T04:46:11.874Z,58.47
2022-07-27T04:48:41.948Z,57.70
2022-07-27T04:51:16.857Z,58.57
2022-07-27T04:53:53.755Z,57.44
2022-07-27T04:56:26.582Z,57.49
2022-07-27T04:58:53.905Z,57.56
2022-07-27T05:01:20.683Z,57.15
2022-07-27T05:03:47.508Z,56.19
2022-07-27T05:06:14.638Z,56.11
2022-07-27T05:08:41.326Z,55.47
2022-07-27T05:11:08.070Z,56.91
2022-07-27T05:13:37.959Z,55.98
2022-07-27T05:16:05.008Z,55.28
2022-07-27T05:18:32.470Z,54.90
2022-07-27T05:20:59.292Z,55.05
2022-07-27T05:23:26.005Z,54.35
2022-07-27T05:25:52.701Z,54.45
2022-07-27T05:28:19.569Z,54.57
2022-07-27T05:30:46.465Z,54.34
2022-07-27T05:33:13.248Z,54.20
2022-07-27T05:35:40.399Z,53.96
2022-07-27T05:38:07.215Z,54.24
2022-07-27T05:40:34.004Z,54.48
2022-07-27T05:43:00.980Z,54.75
2022-07-27T05:45:27.886Z,55.17
2022-07-27T05:47:54.771Z,55.08
2022-07-27T05:50:21.644Z,55.40
2022-07-27T05:52:48.408Z,55.34
2022-07-27T05:55:15.353Z,55.09
2022-07-27T05:57:42.241Z,53.99
2022-07-27T06:00:10.006Z,53.79
2022-07-27T06:02:40.435Z,53.51
2022-07-27T06:05:11.912Z,53.95
2022-07-27T06:08:00.640Z,54.75
2022-07-27T06:10:32.876Z,54.17
2022-07-27T06:13:01.260Z,54.44
2022-07-27T06:15:28.050Z,53.15
2022-07-27T06:17:55.042Z,52.04
2022-07-27T06:20:22.833Z,51.38
2022-07-27T06:22:52.138Z,50.49
2022-07-27T06:25:20.048Z,49.46
2022-07-27T06:27:47.001Z,49.07
2022-07-27T06:30:15.642Z,48.56
2022-07-27T06:32:43.689Z,48.14
2022-07-27T06:35:11.470Z,48.20
2022-07-27T06:37:44.270Z,48.69
2022-07-27T06:40:13.545Z,48.01
2022-07-27T06:42:41.709Z,48.42
2022-07-27T06:45:09.771Z,46.85
2022-07-27T06:47:49.196Z,48.18
2022-07-27T06:50:20.813Z,47.91
2022-07-27T06:52:48.561Z,48.72
2022-07-27T06:55:15.578Z,47.85
2022-07-27T06:57:43.521Z,48.37
2022-07-27T07:00:11.608Z,47.31
2022-07-27T07:02:38.739Z,47.65
2022-07-27T07:05:08.770Z,47.79
2022-07-27T07:07:35.532Z,47.32
2022-07-27T07:10:02.322Z,47.75
2022-07-27T07:12:29.132Z,47.59
2022-07-27T07:14:55.986Z,47.53
2022-07-27T07:17:22.737Z,48.04
2022-07-27T07:19:49.557Z,46.50
2022-07-27T07:22:21.893Z,47.30
2022-07-27T07:24:48.591Z,47.38
2022-07-27T07:27:15.383Z,47.00
2022-07-27T07:29:42.071Z,46.14
2022-07-27T07:32:08.782Z,45.17
2022-07-27T07:34:35.625Z,45.92
2022-07-27T07:37:02.486Z,44.80
2022-07-27T07:39:31.393Z,43.74
2022-07-27T07:41:58.471Z,43.88
2022-07-27T07:44:25.632Z,44.01
2022-07-27T07:46:52.515Z,45.76
2022-07-27T07:49:21.490Z,44.53
2022-07-27T07:52:06.250Z,44.98
2022-07-27T07:54:33.023Z,44.56
2022-07-27T07:56:59.799Z,43.76
2022-07-27T07:59:26.536Z,44.08
2022-07-27T08:01:53.284Z,43.58
2022-07-27T08:04:20.140Z,44.43
2022-07-27T08:06:46.985Z,44.49
2022-07-27T08:09:15.366Z,43.86
2022-07-27T08:11:42.297Z,44.21
2022-07-27T08:14:09.020Z,45.03
2022-07-27T08:16:35.864Z,45.27
2022-07-27T08:19:02.812Z,44.25
2022-07-27T08:21:30.838Z,45.32
2022-07-27T08:24:02.854Z,43.89
2022-07-27T08:26:29.843Z,43.71
2022-07-27T08:28:56.646Z,44.49
2022-07-27T08:31:26.546Z,44.19
2022-07-27T08:34:13.263Z,44.95
2022-07-27T08:36:39.999Z,44.78
2022-07-27T08:39:08.881Z,43.69
2022-07-27T08:41:39.910Z,43.21
2022-07-27T08:44:13.522Z,43.44
2022-07-27T08:46:43.048Z,42.35
2022-07-27T08:49:10.411Z,40.97
2022-07-27T08:51:37.507Z,41.27
2022-07-27T08:54:04.433Z,42.55
2022-07-27T08:56:31.169Z,42.22
2022-07-27T08:58:57.865Z,40.05
2022-07-27T09:01:24.643Z,42.06
2022-07-27T09:03:51.467Z,41.63
2022-07-27T09:06:44.004Z,41.11
2022-07-27T09:09:12.560Z,40.69
2022-07-27T09:11:39.672Z,41.19
2022-07-27T09:14:08.443Z,42.16
2022-07-27T09:17:14.913Z,42.12
2022-07-27T09:19:22.653Z,42.16
2022-07-27T09:21:49.357Z,42.11
2022-07-27T09:24:45.764Z,42.26
2022-07-27T09:27:04.946Z,42.08
2022-07-27T09:29:36.385Z,39.77
2022-07-27T09:32:14.810Z,38.60
2022-07-27T09:34:41.715Z,37.23
2022-07-27T09:37:10.012Z,37.43
2022-07-27T09:39:36.806Z,37.38
2022-07-27T09:42:03.570Z,38.31
2022-07-27T09:44:43.878Z,38.42
2022-07-27T09:47:27.117Z,39.00
2022-07-27T09:50:17.686Z,39.55
2022-07-27T09:52:44.728Z,40.65
2022-07-27T09:55:11.807Z,39.47
2022-07-27T09:57:56.868Z,39.14
2022-07-27T10:00:24.473Z,40.24
2022-07-27T10:02:52.464Z,39.96
2022-07-27T10:05:21.682Z,39.95
2022-07-27T10:07:49.393Z,39.41
2022-07-27T10:10:17.116Z,39.80
2022-07-27T10:12:46.873Z,38.58
2022-07-27T10:15:17.179Z,40.62
2022-07-27T10:17:44.561Z,40.42
2022-07-27T10:20:12.631Z,40.39
2022-07-27T10:22:56.469Z,40.41
2022-07-27T10:25:27.362Z,39.89
2022-07-27T10:28:17.713Z,40.08
2022-07-27T10:30:48.112Z,39.00
2022-07-27T10:33:55.404Z,38.12
2022-07-27T10:36:31.215Z,38.18
2022-07-27T10:39:00.233Z,36.20
2022-07-27T10:41:28.879Z,36.64
2022-07-27T10:44:15.187Z,34.41
2022-07-27T10:47:00.764Z,35.07
2022-07-27T10:49:33.038Z,34.93
2022-07-27T10:52:07.244Z,35.32
2022-07-27T10:54:40.161Z,37.28
2022-07-27T10:57:09.064Z,36.47
2022-07-27T11:00:08.764Z,36.26
2022-07-27T11:02:41.285Z,37.27
2022-07-27T11:05:32.527Z,37.10
2022-07-27T11:08:34.562Z,36.03
2022-07-27T11:10:48.594Z,32.87
2022-07-27T11:13:19.258Z,33.79
2022-07-27T11:16:09.661Z,33.29
2022-07-27T11:18:45.425Z,33.83
2022-07-27T11:21:25.855Z,34.34
2022-07-27T11:24:15.066Z,33.35
2022-07-27T11:26:47.885Z,33.31
2022-07-27T11:29:16.475Z,33.91
2022-07-27T11:31:55.242Z,33.17
2022-07-27T11:34:34.198Z,34.03
2022-07-27T11:37:03.278Z,32.98
2022-07-27T11:42:21.077Z,34.92
2022-07-27T11:44:48.848Z,34.25
2022-07-27T11:47:21.093Z,33.52
2022-07-27T11:49:48.113Z,32.86
2022-07-27T11:52:17.798Z,31.79
2022-07-27T11:54:51.772Z,30.47
2022-07-27T11:57:20.858Z,31.85
2022-07-27T11:59:48.441Z,32.20
2022-07-27T12:02:20.593Z,32.80
2022-07-27T12:04:49.756Z,34.05
2022-07-27T12:07:31.793Z,30.56
2022-07-27T12:10:00.341Z,30.94
2022-07-27T12:12:35.077Z,28.98
2022-07-27T12:15:16.610Z,28.03
2022-07-27T12:18:00.100Z,26.85
2022-07-27T12:20:35.377Z,28.19
2022-07-27T12:23:07.255Z,28.69
2022-07-27T12:25:35.826Z,28.15
2022-07-27T12:28:13.400Z,26.94
2022-07-27T12:30:52.190Z,28.34
2022-07-27T12:33:29.788Z,27.77
2022-07-27T12:35:57.939Z,29.03
2022-07-27T12:38:41.016Z,30.57
2022-07-27T12:41:08.344Z,29.52
2022-07-27T12:43:35.428Z,30.92
2022-07-27T12:46:13.689Z,32.14
2022-07-27T12:48:42.907Z,31.07
2022-07-27T12:51:11.180Z,31.50
2022-07-27T12:53:39.231Z,32.00
2022-07-27T12:56:10.457Z,31.55
2022-07-27T12:58:38.120Z,30.32
2022-07-27T13:01:05.632Z,29.95
2022-07-27T13:03:33.546Z,31.10
2022-07-27T13:06:05.833Z,30.34
2022-07-27T13:08:37.675Z,31.15
2022-07-27T13:11:04.463Z,31.09
2022-07-27T13:13:31.358Z,32.77
2022-07-27T13:15:58.168Z,32.11
2022-07-27T13:18:24.996Z,31.99
2022-07-27T13:20:52.092Z,32.55
2022-07-27T13:23:18.992Z,33.27
2022-07-27T13:25:45.831Z,32.13
2022-07-27T13:28:12.860Z,32.43
2022-07-27T13:30:39.817Z,32.97
2022-07-27T13:33:06.679Z,34.62
2022-07-27T13:35:33.580Z,33.79
2022-07-27T13:38:00.459Z,32.75
2022-07-27T13:40:27.232Z,33.40
2022-07-27T13:42:54.065Z,32.42
2022-07-27T13:45:20.980Z,32.47
2022-07-27T13:47:47.828Z,32.11
2022-07-27T13:50:19.239Z,32.83
2022-07-27T13:52:47.731Z,31.20
2022-07-27T13:55:15.959Z,32.03
2022-07-27T13:57:42.822Z,31.97
2022-07-27T14:00:10.400Z,32.78
2022-07-27T14:02:37.212Z,33.06
2022-07-27T14:05:06.081Z,32.66
2022-07-27T14:07:33.591Z,31.87
2022-07-27T14:10:32.699Z,32.87
2022-07-27T14:13:08.291Z,33.89
2022-07-27T14:15:50.426Z,35.27
2022-07-27T14:18:23.474Z,32.87
2022-07-27T14:20:50.371Z,33.55
2022-07-27T14:23:17.165Z,33.65
2022-07-27T14:25:43.880Z,32.47
2022-07-27T14:28:10.701Z,33.76
2022-07-27T14:30:37.678Z,33.58
2022-07-27T14:33:04.445Z,34.55
2022-07-27T14:35:31.240Z,33.84
2022-07-27T14:38:00.296Z,34.12
2022-07-27T14:40:27.099Z,33.70
2022-07-27T14:42:54.346Z,32.97
2022-07-27T14:45:21.172Z,33.89
2022-07-27T14:47:47.935Z,33.79
2022-07-27T14:50:15.192Z,33.79
2022-07-27T14:52:42.285Z,36.40
2022-07-27T14:55:09.624Z,34.47
2022-07-27T14:57:37.108Z,33.85
2022-07-27T15:00:14.595Z,34.12
2022-07-27T15:02:42.625Z,35.42
2022-07-27T15:05:10.183Z,34.33
2022-07-27T15:07:37.518Z,34.71
2022-07-27T15:10:06.008Z,33.71
2022-07-27T15:12:37.541Z,34.13
2022-07-27T15:15:06.861Z,33.69
2022-07-27T15:17:33.949Z,34.12
2022-07-27T15:20:07.154Z,35.15
2022-07-27T15:22:34.090Z,35.03
2022-07-27T15:25:00.918Z,35.50
2022-07-27T15:27:27.687Z,34.50
2022-07-27T15:29:55.115Z,34.98
2022-07-27T15:32:21.946Z,35.21
2022-07-27T15:34:50.218Z,34.30
2022-07-27T15:37:17.044Z,34.98
2022-07-27T15:39:43.937Z,34.59
2022-07-27T15:42:10.725Z,34.59
2022-07-27T15:44:37.896Z,33.91
2022-07-27T15:47:04.865Z,33.72
2022-07-27T15:49:31.887Z,34.15
2022-07-27T15:51:58.834Z,34.13
2022-07-27T15:54:27.994Z,33.50
2022-07-27T15:56:57.080Z,33.53
2022-07-27T15:59:24.034Z,35.92
2022-07-27T16:01:50.835Z,35.30
2022-07-27T16:04:20.557Z,35.50
2022-07-27T16:06:47.435Z,34.85
2022-07-27T16:09:14.591Z,34.68
2022-07-27T16:11:41.619Z,34.61
2022-07-27T16:14:08.676Z,34.58
2022-07-27T16:16:35.687Z,34.80
2022-07-27T16:19:13.401Z,35.54
2022-07-27T16:21:54.685Z,35.43
2022-07-27T16:24:26.333Z,35.45
2022-07-27T16:26:53.141Z,34.52
2022-07-27T16:29:20.095Z,35.52
2022-07-27T16:31:47.000Z,35.39
2022-07-27T16:34:13.775Z,35.48
2022-07-27T16:36:41.613Z,34.79
2022-07-27T16:39:08.391Z,34.96
2022-07-27T16:41:35.262Z,34.28
2022-07-27T16:44:02.104Z,34.66
2022-07-27T16:46:29.255Z,35.26
2022-07-27T16:48:56.209Z,35.76
2022-07-27T16:51:23.024Z,35.17
2022-07-27T16:53:50.338Z,35.98
2022-07-27T16:56:17.733Z,36.23
2022-07-27T16:58:45.181Z,35.55
2022-07-27T17:01:15.154Z,35.86
2022-07-27T17:03:52.962Z,35.98
2022-07-27T17:06:19.884Z,36.67
2022-07-27T17:08:46.728Z,35.59
2022-07-27T17:11:13.686Z,35.67
2022-07-27T17:13:46.202Z,36.28
2022-07-27T17:16:16.176Z,36.29
2022-07-27T17:18:43.089Z,39.47
2022-07-27T17:21:12.938Z,40.49
2022-07-27T17:23:41.302Z,39.85
2022-07-27T17:26:08.992Z,40.94
2022-07-27T17:28:39.375Z,39.82
2022-07-27T17:31:12.290Z,39.40
2022-07-27T17:33:40.215Z,40.62
2022-07-27T17:36:13.761Z,39.97
2022-07-27T17:38:45.227Z,41.97
2022-07-27T17:41:12.845Z,40.83
2022-07-27T17:43:40.323Z,41.64
2022-07-27T17:46:09.005Z,40.51
2022-07-27T17:48:36.884Z,42.61
2022-07-27T17:51:05.382Z,41.20
2022-07-27T17:53:32.619Z,42.28
2022-07-27T17:56:00.788Z,42.77
2022-07-27T17:58:30.183Z,43.39
2022-07-27T18:00:57.643Z,41.78
2022-07-27T18:03:24.496Z,42.86
2022-07-27T18:05:51.336Z,41.76
2022-07-27T18:08:18.256Z,43.14
2022-07-27T18:13:12.443Z,41.17
2022-07-27T18:15:48.294Z,40.40
2022-07-27T18:18:19.971Z,40.88
2022-07-27T18:20:48.413Z,41.29
2022-07-27T18:23:16.186Z,42.03
2022-07-27T18:25:44.362Z,41.08
2022-07-27T18:28:11.511Z,40.91
2022-07-27T18:30:38.453Z,40.62
2022-07-27T18:33:05.440Z,40.78
2022-07-27T18:35:32.481Z,41.54
2022-07-27T18:37:59.359Z,40.77
2022-07-27T18:40:26.119Z,40.88
2022-07-27T18:42:52.912Z,41.19
2022-07-27T18:45:19.742Z,42.06
2022-07-27T18:47:49.288Z,42.40
2022-07-27T18:50:17.734Z,42.08
2022-07-27T18:52:44.586Z,41.56
2022-07-27T18:55:11.618Z,41.51
2022-07-27T18:57:38.567Z,43.39
2022-07-27T19:00:07.087Z,43.29
2022-07-27T19:02:39.100Z,43.28
2022-07-27T19:05:09.244Z,42.74
2022-07-27T19:07:39.348Z,44.02
2022-07-27T19:10:07.836Z,43.40
2022-07-27T19:12:34.826Z,43.93
2022-07-27T19:15:01.578Z,43.64
2022-07-27T19:17:28.324Z,44.83
2022-07-27T19:19:55.036Z,44.19
2022-07-27T19:22:21.795Z,44.18
2022-07-27T19:24:54.402Z,44.22
2022-07-27T19:27:21.935Z,44.53
2022-07-27T19:29:48.839Z,45.77
2022-07-27T19:32:16.955Z,46.43
2022-07-27T19:34:43.897Z,46.65
2022-07-27T19:37:11.551Z,46.76
2022-07-27T19:39:58.560Z,46.42
2022-07-27T19:42:25.295Z,47.25
2022-07-27T19:44:52.216Z,47.96
2022-07-27T19:47:19.110Z,46.32
2022-07-27T19:49:45.843Z,47.56
2022-07-27T19:52:12.597Z,47.09
2022-07-27T19:54:39.501Z,48.53
2022-07-27T19:57:06.224Z,48.47
2022-07-27T19:59:55.378Z,48.59
2022-07-27T20:02:20.022Z,48.57
2022-07-27T20:04:46.868Z,49.59
2022-07-27T20:07:13.772Z,49.55
2022-07-27T20:09:40.859Z,49.53
2022-07-27T20:12:08.485Z,49.77
2022-07-27T20:14:36.446Z,50.35
2022-07-27T20:17:04.011Z,49.76
2022-07-27T20:19:31.222Z,49.82
2022-07-27T20:21:59.901Z,49.74
2022-07-27T20:24:27.933Z,50.13
2022-07-27T20:26:55.190Z,50.14
2022-07-27T20:29:22.011Z,49.44
2022-07-27T20:31:49.796Z,49.36
2022-07-27T20:34:19.375Z,49.83
2022-07-27T20:36:46.107Z,49.99
2022-07-27T20:39:17.319Z,49.86
2022-07-27T20:41:44.608Z,49.92
2022-07-27T20:44:11.452Z,49.79
2022-07-27T20:46:38.212Z,49.14
2022-07-27T20:49:05.150Z,49.77
2022-07-27T20:51:32.150Z,49.79
2022-07-27T20:53:59.062Z,50.07
2022-07-27T20:56:25.884Z,50.12
2022-07-27T20:58:52.601Z,49.26
2022-07-27T21:01:19.625Z,50.09
2022-07-27T21:03:46.486Z,50.13
2022-07-27T21:06:13.355Z,50.23
2022-07-27T21:08:45.919Z,50.13
2022-07-27T21:11:13.763Z,50.45
2022-07-27T21:13:40.961Z,51.00
2022-07-27T21:16:07.865Z,50.78
2022-07-27T21:18:34.763Z,50.89
2022-07-27T21:21:01.696Z,51.00
2022-07-27T21:23:47.092Z,51.37
2022-07-27T21:26:18.110Z,51.16
2022-07-27T21:28:45.369Z,51.33
2022-07-27T21:31:12.136Z,51.83
2022-07-27T21:33:39.883Z,51.21
2022-07-27T21:36:07.381Z,52.06
2022-07-27T21:38:34.321Z,51.87
2022-07-27T21:41:01.194Z,52.56
2022-07-27T21:43:30.648Z,53.11
2022-07-27T21:45:57.390Z,53.70
2022-07-27T21:48:24.143Z,53.20
2022-07-27T21:50:50.922Z,52.83
2022-07-27T21:53:17.713Z,53.85
2022-07-27T21:55:44.654Z,53.48
2022-07-27T21:58:12.455Z,53.94
2022-07-27T22:00:39.296Z,54.23
2022-07-27T22:03:06.438Z,54.18
2022-07-27T22:05:33.490Z,54.39
2022-07-27T22:08:01.037Z,54.56
2022-07-27T22:10:28.506Z,55.18
2022-07-27T22:12:55.442Z,55.60
2022-07-27T22:15:22.114Z,55.60
2022-07-27T22:17:50.713Z,56.06
2022-07-27T22:20:18.663Z,56.21
2022-07-27T22:22:47.367Z,56.44
2022-07-27T22:25:14.825Z,56.84
2022-07-27T22:27:41.784Z,57.39
2022-07-27T22:30:09.298Z,57.60
2022-07-27T22:32:36.301Z,58.00
2022-07-27T22:35:03.535Z,57.64
2022-07-27T22:37:30.455Z,57.83
2022-07-27T22:39:57.161Z,58.05
2022-07-27T22:42:23.829Z,58.14
2022-07-27T22:44:50.549Z,58.39
2022-07-27T22:47:17.327Z,58.81
2022-07-27T22:49:44.215Z,58.97
2022-07-27T22:52:11.075Z,58.93
2022-07-27T22:54:38.794Z,59.17
2022-07-27T22:57:06.164Z,59.31
2022-07-27T22:59:33.371Z,59.24
2022-07-27T23:02:00.496Z,59.23
2022-07-27T23:04:27.273Z,59.60
2022-07-27T23:06:54.099Z,59.65
2022-07-27T23:09:21.411Z,60.07
2022-07-27T23:11:48.165Z,60.10
2022-07-27T23:14:15.330Z,60.50
2022-07-27T23:16:43.506Z,60.31
2022-07-27T23:19:10.503Z,60.41
2022-07-27T23:21:37.599Z,60.52
2022-07-27T23:24:05.411Z,60.55
2022-07-27T23:26:32.359Z,60.82
2022-07-27T23:29:00.583Z,61.15
2022-07-27T23:31:29.471Z,61.21
2022-07-27T23:33:56.567Z,61.35
2022-07-27T23:36:23.293Z,61.27
2022-07-27T23:38:50.035Z,61.47
2022-07-27T23:41:16.791Z,61.79
2022-07-27T23:43:43.945Z,61.82
2022-07-27T23:46:10.836Z,61.52
2022-07-27T23:48:37.817Z,61.84
2022-07-27T23:51:04.550Z,61.42
2022-07-27T23:53:31.247Z,61.46
2022-07-27T23:55:58.502Z,61.15
2022-07-27T23:58:25.238Z,61.31
